Flight Track Log - Related Links

Times and Time Zones

All times are in EDT time to prevent confusion due to time zone crossing. See the KAL748 flight status page for this flight to view local times or setup timezone preferences in your user account.

Time Position Orientation Groundspeed Altitude Reporting Facility
EDT Latitude Longitude Course Direction KTS MPH feet Rate Location/Type
Mon 09:06:00 PM 34.8484 133.6317 297° West  Level Estimated
Mon 09:07:00 PM 34.8940 133.5197 296° West  Level Estimated
Mon 09:08:00 PM 34.9394 133.4076 296° West  Level Estimated
Mon 09:09:00 PM 34.9848 133.2953 296° West  Level Estimated
Mon 09:10:00 PM 35.0301 133.1830 296° West  Level Estimated
Mon 09:11:00 PM 35.0752 133.0705 296° West  Level Estimated
Mon 09:12:00 PM 35.1203 132.9579 296° West  Level Estimated
Mon 09:13:00 PM 35.1652 132.8452 296° West  Level Estimated
Mon 09:14:00 PM 35.2101 132.7323 296° West  Level Estimated
Mon 09:15:00 PM 35.2548 132.6193 296° West  Level Estimated
Mon 09:16:00 PM 35.2995 132.5062 296° West  Level Estimated
Mon 09:17:00 PM 35.3440 132.3930 296° West  Level Estimated
Mon 09:18:00 PM 35.3884 132.2796 296° West  Level Estimated
Mon 09:19:00 PM 35.4328 132.1662 296° West  Level Estimated
Mon 09:20:00 PM 35.4770 132.0525 296° West  Level Estimated
Mon 09:21:00 PM 35.5211 131.9388 296° West  Level Estimated
Mon 09:22:00 PM 35.5651 131.8250 295° West  Level Estimated
Mon 09:23:00 PM 35.6090 131.7110 295° West  Level Estimated
Mon 09:24:00 PM 35.6527 131.5969 295° West  Level Estimated
Mon 09:25:00 PM 35.6964 131.4826 295° West  Level Estimated
Mon 09:26:00 PM 35.7400 131.3683 295° West  Level Estimated
Mon 09:27:00 PM 35.7835 131.2538 295° West  Level Estimated
Mon 09:28:00 PM 35.8268 131.1392 295° West  Level Estimated
Mon 09:29:00 PM 35.8700 131.0245 295° West  Level Estimated
Mon 09:30:00 PM 35.9132 130.9096 295° West  Level Estimated
Mon 09:31:00 PM 35.9562 130.7946 295° West  Level Estimated
Mon 09:32:00 PM 35.9991 130.6795 295° West  Level Estimated
Mon 09:33:00 PM 36.0419 130.5643 295° West  Level Estimated
Mon 09:34:00 PM 36.0846 130.4489 295° West  Level Estimated
Mon 09:35:00 PM 36.1187 130.3566 295° West  Level Estimated
Mon 09:36:00 PM 36.1527 130.2641 295° West  Level Estimated
Mon 09:37:00 PM 36.1866 130.1716 294° West  Level Estimated
Mon 09:38:00 PM 36.2205 130.0789 294° West  Level Estimated
Mon 09:39:00 PM 36.2543 129.9863 294° West  Level Estimated
Mon 09:40:00 PM 36.2880 129.8935 294° West  Level Estimated
Mon 09:41:00 PM 36.3216 129.8006 294° West  Level Estimated
Mon 09:42:00 PM 36.3552 129.7077 294° West  Level Estimated
Mon 09:43:00 PM 36.3887 129.6147 294° West  Level Estimated
Mon 09:44:00 PM 36.4221 129.5215 294° West  Level Estimated
Mon 09:45:00 PM 36.4555 129.4284 294° West  Level Estimated
Mon 09:46:00 PM 36.4888 129.3351 294° West  Level Estimated
Mon 09:47:00 PM 36.5220 129.2418 294° West  Level Estimated
Mon 09:48:00 PM 36.5551 129.1483 294° West  Level Estimated
Mon 09:49:00 PM 36.5882 129.0549 294° West  Level Estimated
Mon 09:50:00 PM 36.6212 128.9613 294° West  Level Estimated
Mon 09:51:00 PM 36.6541 128.8676 294° West  Level Estimated
Mon 09:52:00 PM 36.6870 128.7739 294° West  Level Estimated
Mon 09:53:00 PM 36.7198 128.6801 294° West  Level Estimated
Mon 09:54:00 PM 36.7525 128.5862 294° West  Level Estimated
Mon 09:55:00 PM 36.7851 128.4922 293° West  Level Estimated
Mon 09:56:00 PM 36.8176 128.3981 293° West  Level Estimated
Mon 09:57:00 PM 36.8501 128.3040 293° West  Level Estimated
Mon 09:58:00 PM 36.8825 128.2097 293° West  Level Estimated
Mon 09:59:00 PM 36.9149 128.1154 293° West  Level Estimated
Mon 10:00:00 PM 36.9471 128.0211 293° West  Level Estimated
Mon 10:01:00 PM 36.9793 127.9266 293° West  Level Estimated
Mon 10:02:00 PM 37.0114 127.8321 293° West  Level Estimated
Mon 10:03:00 PM 37.0434 127.7374 293° West  Level Estimated
Mon 10:04:00 PM 37.0754 127.6428 293° West  Level Estimated
Mon 10:05:00 PM 37.1073 127.5480 293° West  Level Estimated
Mon 10:06:00 PM 37.1391 127.4531 293° West  Level Estimated
Mon 10:07:00 PM 37.1708 127.3582 293° West  Level Estimated
Mon 10:08:00 PM 37.2025 127.2632 293° West  Level Estimated
Mon 10:09:00 PM 37.2341 127.1681 293° West  Level Estimated
Mon 10:10:00 PM 37.2656 127.0729 293° West  Level Estimated
Mon 10:11:00 PM 37.2970 126.9777 293° West  Level Estimated
Mon 10:12:00 PM 37.3284 126.8824 292° West  Level Estimated
Mon 10:13:00 PM 37.3596 126.7869 292° West  Level Estimated
Mon 10:14:00 PM 37.3908 126.6915 292° West  Level Estimated
Mon 10:15:00 PM 37.4219 126.5959 292° West  Level Estimated
Mon 10:16:00 PM 37.4530 126.5002 292° West  Level Estimated
Mon 10:17:00 PM 37.4691 126.4505 292° West  Level Estimated
Mon 10:18:00 PM 37.4691 126.4505 205° Southwest  Level Estimated
Mon 10:19:00 PM 37.4691 126.4505 335° Northwest  Level Estimated
Mon 10:20:00 PM 37.4691 126.4505 335° Northwest  Level Estimated
Mon 10:21:00 PM 37.4691 126.4505 335° Northwest  Level Estimated
Mon 10:22:00 PM 37.4691 126.4505 335° Northwest  Level Estimated
Mon 10:23:00 PM 37.4691 126.4505 335° Northwest  Level Estimated
Mon 10:24:00 PM 37.4691 126.4505 335° Northwest  Level Estimated
Mon 10:25:00 PM 37.4691 126.4505 335° Northwest  Level Estimated

Login

Don't have an account? Register now (free) for customized features, flight alerts, and more!